Time;durP1;ratioP1;P1;durP2;ratioP2;P2;SDS_P1;SDS_P2;PMS_P1;PMS_P2;Temp;Humidity;BMP_temperature;BMP_pressure;BME280_temperature;BME280_humidity;BME280_pressure;Samples;Min_cycle;Max_cycle;Signal;HPM_P1;HPM_P2
2023/10/19 00:00:33;;;;;;;14.50;8.15;;;10.80;99.90;;;;;;5023864;28;20096;-65
2023/10/19 00:03:02;;;;;;;16.27;8.95;;;10.80;99.90;;;;;;5031743;28;20375;-64
2023/10/19 00:05:32;;;;;;;12.73;8.65;;;10.80;99.90;;;;;;5027966;28;20022;-65
2023/10/19 00:07:59;;;;;;;13.73;8.40;;;10.80;99.90;;;;;;5027119;28;20026;-64
2023/10/19 00:10:29;;;;;;;15.00;7.53;;;10.90;99.90;;;;;;5033126;28;20112;-65
2023/10/19 00:13:03;;;;;;;12.70;8.63;;;10.90;99.90;;;;;;5031109;28;20029;-65
2023/10/19 00:15:31;;;;;;;14.18;8.23;;;10.90;99.90;;;;;;5027091;28;20034;-65
2023/10/19 00:17:59;;;;;;;18.00;8.07;;;10.90;99.90;;;;;;5029669;28;20395;-65
2023/10/19 00:20:47;;;;;;;13.82;8.68;;;10.90;99.90;;;;;;5033649;28;20028;-65
2023/10/19 00:23:13;;;;;;;12.15;7.80;;;10.90;99.90;;;;;;5027515;28;20029;-65
2023/10/19 00:25:42;;;;;;;15.25;8.48;;;11.00;99.90;;;;;;5029402;28;20114;-64
2023/10/19 00:28:08;;;;;;;16.95;8.80;;;11.00;99.90;;;;;;5033586;28;20040;-64
2023/10/19 00:30:37;;;;;;;17.35;9.18;;;11.10;99.90;;;;;;5034016;28;20026;-65
2023/10/19 00:33:03;;;;;;;13.50;8.80;;;11.10;99.90;;;;;;5031807;28;20026;-64
2023/10/19 00:35:36;;;;;;;13.57;8.25;;;11.10;99.90;;;;;;5041451;28;20030;-65
2023/10/19 00:40:58;;;;;;;13.05;8.82;;;11.10;99.90;;;;;;5032820;28;20045;-64
2023/10/19 00:43:37;;;;;;;13.85;8.15;;;11.20;99.90;;;;;;5033451;28;20113;-65
2023/10/19 00:46:20;;;;;;;14.23;8.45;;;11.20;99.90;;;;;;5030293;28;20033;-65
2023/10/19 00:48:58;;;;;;;13.93;8.55;;;11.20;99.90;;;;;;5026626;28;20025;-65
2023/10/19 00:54:08;;;;;;;14.63;8.93;;;11.30;99.90;;;;;;5026773;28;20033;-65
2023/10/19 00:56:34;;;;;;;12.27;8.52;;;11.30;99.90;;;;;;5025558;28;20025;-65
2023/10/19 00:59:21;;;;;;;15.60;8.30;;;11.30;99.90;;;;;;5015451;28;20028;-65
2023/10/19 01:01:48;;;;;;;14.10;8.23;;;11.30;99.90;;;;;;5031767;28;20025;-65
2023/10/19 01:04:20;;;;;;;11.65;7.90;;;11.40;99.90;;;;;;5032725;28;20017;-64
2023/10/19 01:06:59;;;;;;;13.85;8.07;;;11.40;99.90;;;;;;5025107;28;20037;-65
2023/10/19 01:09:27;;;;;;;24.40;8.77;;;11.40;99.90;;;;;;5023384;28;20503;-65
2023/10/19 01:11:53;;;;;;;12.50;7.07;;;11.40;99.90;;;;;;5030073;28;20034;-64
2023/10/19 01:14:23;;;;;;;14.50;7.90;;;11.40;99.90;;;;;;5028531;28;20500;-64
2023/10/19 01:16:56;;;;;;;14.40;7.97;;;11.40;99.90;;;;;;5031918;28;20029;-65
2023/10/19 01:19:27;;;;;;;13.05;8.23;;;11.50;99.90;;;;;;5028251;28;20032;-65
2023/10/19 01:21:58;;;;;;;16.35;8.88;;;11.50;99.90;;;;;;5031051;28;20025;-64
2023/10/19 01:24:42;;;;;;;15.70;8.77;;;11.50;99.90;;;;;;5029811;28;20021;-64
2023/10/19 01:27:10;;;;;;;11.18;8.13;;;11.50;99.90;;;;;;5023898;28;20403;-65
2023/10/19 01:29:38;;;;;;;12.75;8.07;;;11.50;99.90;;;;;;5029132;28;20030;-65
2023/10/19 01:32:11;;;;;;;15.25;8.38;;;11.50;99.90;;;;;;5030588;28;20031;-64
2023/10/19 01:34:37;;;;;;;12.23;7.38;;;11.60;99.90;;;;;;5029296;28;20025;-65
2023/10/19 01:37:03;;;;;;;12.27;8.30;;;11.60;99.90;;;;;;5026496;28;20113;-65
2023/10/19 01:39:37;;;;;;;12.10;8.27;;;11.70;99.90;;;;;;5031409;28;20026;-64
2023/10/19 01:42:07;;;;;;;14.30;8.60;;;11.70;99.90;;;;;;5029583;28;20021;-64
2023/10/19 01:44:35;;;;;;;16.73;8.88;;;11.60;99.90;;;;;;5027354;28;20368;-65
2023/10/19 01:47:01;;;;;;;13.55;7.47;;;11.70;99.90;;;;;;5031199;28;20022;-64
2023/10/19 01:49:28;;;;;;;13.43;8.25;;;11.70;99.90;;;;;;5031606;28;20528;-65
2023/10/19 01:51:54;;;;;;;14.43;8.27;;;11.70;99.90;;;;;;5029926;28;20021;-65
2023/10/19 01:54:24;;;;;;;12.82;8.75;;;11.70;99.90;;;;;;5030387;28;20026;-65
2023/10/19 01:56:56;;;;;;;10.82;6.90;;;11.70;99.90;;;;;;5031173;28;20025;-65
2023/10/19 01:59:26;;;;;;;10.95;6.97;;;11.70;99.90;;;;;;5022881;28;21632;-64
2023/10/19 02:01:57;;;;;;;14.63;7.75;;;11.80;99.90;;;;;;5027628;28;20025;-65
2023/10/19 02:04:23;;;;;;;10.32;7.20;;;11.80;99.90;;;;;;5031724;28;20053;-65
2023/10/19 02:06:51;;;;;;;11.77;8.15;;;11.80;99.90;;;;;;5028835;28;20029;-65
2023/10/19 02:09:17;;;;;;;11.00;7.22;;;11.80;99.90;;;;;;5026101;28;20026;-65
2023/10/19 02:11:48;;;;;;;10.52;6.90;;;11.80;99.90;;;;;;5040065;28;20499;-65
2023/10/19 02:14:18;;;;;;;10.35;7.00;;;11.80;99.90;;;;;;5030929;28;20118;-64
2023/10/19 02:16:52;;;;;;;10.63;6.90;;;11.80;99.90;;;;;;5029823;28;20037;-65
2023/10/19 02:19:21;;;;;;;10.88;7.70;;;11.80;99.90;;;;;;5029888;28;20029;-64
2023/10/19 02:21:52;;;;;;;11.85;7.40;;;11.80;99.90;;;;;;5029361;28;20456;-64
2023/10/19 02:24:18;;;;;;;10.73;7.75;;;11.80;99.90;;;;;;5027319;28;20017;-65
2023/10/19 02:26:46;;;;;;;10.45;7.90;;;11.80;99.90;;;;;;5030069;28;20109;-64
2023/10/19 02:29:12;;;;;;;12.13;6.93;;;11.80;99.90;;;;;;5030437;28;20041;-65
2023/10/19 02:31:40;;;;;;;11.18;7.68;;;11.80;99.90;;;;;;5027527;28;20029;-65
2023/10/19 02:34:09;;;;;;;12.32;6.78;;;11.80;99.90;;;;;;5029595;28;20025;-65
2023/10/19 02:36:36;;;;;;;11.52;7.28;;;11.80;99.90;;;;;;5029347;28;20022;-65
2023/10/19 02:39:08;;;;;;;13.75;7.35;;;11.80;99.90;;;;;;5029725;28;20052;-65
2023/10/19 02:41:43;;;;;;;13.13;7.55;;;11.80;99.90;;;;;;5029673;28;20054;-65
2023/10/19 02:46:42;;;;;;;14.82;7.75;;;11.80;99.90;;;;;;5028907;28;20101;-65
2023/10/19 02:49:11;;;;;;;10.02;7.28;;;11.80;99.90;;;;;;5028950;28;20120;-65
2023/10/19 02:51:44;;;;;;;11.00;7.35;;;11.80;99.90;;;;;;5026559;28;20029;-65
2023/10/19 02:54:22;;;;;;;11.00;6.55;;;11.80;99.90;;;;;;5028921;28;20487;-64
2023/10/19 02:56:53;;;;;;;12.98;8.07;;;11.80;99.90;;;;;;5026258;28;20143;-65
2023/10/19 02:59:22;;;;;;;12.10;6.85;;;11.80;99.90;;;;;;5030392;28;20017;-65
2023/10/19 03:01:49;;;;;;;12.40;7.20;;;11.90;99.90;;;;;;5026394;28;20037;-64
2023/10/19 03:04:15;;;;;;;11.85;7.13;;;11.90;99.90;;;;;;5031049;28;20024;-65
2023/10/19 03:06:41;;;;;;;13.27;8.20;;;11.90;99.90;;;;;;5030292;28;20025;-64
2023/10/19 03:09:14;;;;;;;13.25;7.95;;;11.90;99.90;;;;;;5028430;28;20087;-65
2023/10/19 03:11:41;;;;;;;11.18;6.90;;;11.90;99.90;;;;;;5029421;28;20426;-65
2023/10/19 03:14:08;;;;;;;14.27;8.13;;;11.90;99.90;;;;;;5031057;28;20033;-64
2023/10/19 03:16:34;;;;;;;13.52;7.47;;;11.90;99.90;;;;;;5031225;28;20471;-65
2023/10/19 03:19:00;;;;;;;10.77;6.57;;;11.90;99.90;;;;;;5030884;28;20515;-65
2023/10/19 03:21:33;;;;;;;11.00;6.57;;;11.90;99.90;;;;;;5029991;28;20041;-64
2023/10/19 03:24:01;;;;;;;11.73;7.55;;;11.90;99.90;;;;;;5025954;28;20033;-65
2023/10/19 03:26:30;;;;;;;12.90;7.07;;;11.90;99.90;;;;;;5025476;28;20398;-64
2023/10/19 03:29:08;;;;;;;11.82;7.30;;;11.80;99.90;;;;;;5029582;28;20025;-65
2023/10/19 03:31:43;;;;;;;9.70;6.53;;;11.80;99.90;;;;;;5027416;28;20021;-65
2023/10/19 03:34:12;;;;;;;11.20;6.93;;;11.80;99.90;;;;;;5030166;28;20053;-65
2023/10/19 03:36:39;;;;;;;12.38;7.43;;;11.80;99.90;;;;;;5028681;28;20483;-65
2023/10/19 03:39:11;;;;;;;12.70;7.40;;;11.70;99.90;;;;;;5029107;28;20025;-65
2023/10/19 03:41:39;;;;;;;13.63;7.85;;;11.70;99.90;;;;;;5027464;28;20040;-65
2023/10/19 03:44:05;;;;;;;20.27;8.10;;;11.70;99.90;;;;;;5028109;28;20025;-64
2023/10/19 03:46:31;;;;;;;13.15;8.30;;;11.60;99.90;;;;;;5035105;28;20025;-65
2023/10/19 03:49:10;;;;;;;14.48;8.40;;;11.60;99.90;;;;;;5029681;28;20483;-64
2023/10/19 03:51:40;;;;;;;13.15;8.18;;;11.60;99.90;;;;;;5030406;28;20029;-65
2023/10/19 03:54:22;;;;;;;13.75;8.40;;;11.50;99.90;;;;;;5029316;28;20029;-65
2023/10/19 03:56:56;;;;;;;18.10;8.20;;;11.40;99.90;;;;;;5031513;28;20049;-64
2023/10/19 03:59:22;;;;;;;15.88;8.63;;;11.40;99.90;;;;;;5033534;28;20055;-65
2023/10/19 04:01:48;;;;;;;12.63;7.68;;;11.40;99.90;;;;;;5032843;28;20036;-64
2023/10/19 04:04:13;;;;;;;13.40;8.10;;;11.30;99.90;;;;;;5032692;28;20025;-64
2023/10/19 04:06:54;;;;;;;15.07;7.88;;;11.30;99.90;;;;;;5028319;28;20078;-64
2023/10/19 04:09:19;;;;;;;15.63;8.88;;;11.40;99.90;;;;;;5029992;28;20030;-64
2023/10/19 04:11:48;;;;;;;18.60;8.27;;;11.40;99.90;;;;;;5031611;28;20052;-65
2023/10/19 04:14:18;;;;;;;15.93;8.55;;;11.50;99.90;;;;;;5032506;28;20032;-64
2023/10/19 04:16:44;;;;;;;16.13;8.77;;;11.50;99.90;;;;;;5033361;28;20033;-65
2023/10/19 04:19:14;;;;;;;17.58;7.65;;;11.50;99.90;;;;;;5030465;28;20479;-64
2023/10/19 04:21:43;;;;;;;14.85;8.30;;;11.50;99.90;;;;;;5030430;28;20037;-64
2023/10/19 04:24:10;;;;;;;19.63;8.48;;;11.50;99.90;;;;;;5032298;28;20021;-65
2023/10/19 04:26:39;;;;;;;12.65;7.75;;;11.50;99.90;;;;;;5028255;28;20030;-65
2023/10/19 04:29:13;;;;;;;13.38;8.23;;;11.50;99.90;;;;;;5031221;28;20488;-65
2023/10/19 04:31:58;;;;;;;20.50;8.48;;;11.50;99.90;;;;;;5031344;28;20044;-65
2023/10/19 04:34:24;;;;;;;12.57;6.63;;;11.50;99.90;;;;;;5029932;28;20076;-65
2023/10/19 04:36:50;;;;;;;18.58;8.30;;;11.60;99.90;;;;;;5031960;28;20450;-65
2023/10/19 04:39:19;;;;;;;19.27;9.55;;;11.60;99.90;;;;;;5030385;28;20041;-65
2023/10/19 04:41:48;;;;;;;31.60;16.92;;;11.60;99.90;;;;;;5033970;28;20045;-65
2023/10/19 04:44:15;;;;;;;108.55;56.17;;;11.60;99.90;;;;;;5031907;28;20552;-65
2023/10/19 04:46:41;;;;;;;95.10;48.40;;;11.60;99.90;;;;;;5032876;28;20029;-65
2023/10/19 04:49:07;;;;;;;63.78;29.10;;;11.60;99.90;;;;;;5029782;28;20033;-65
2023/10/19 04:51:34;;;;;;;92.25;44.63;;;11.70;99.90;;;;;;5031723;28;20037;-64
2023/10/19 04:54:00;;;;;;;65.07;28.63;;;11.70;99.90;;;;;;5031131;28;20048;-65
2023/10/19 04:56:25;;;;;;;95.47;38.28;;;11.70;99.90;;;;;;5030342;28;20691;-65
2023/10/19 04:58:51;;;;;;;100.50;44.72;;;11.70;99.90;;;;;;5032270;28;20041;-65
2023/10/19 05:01:16;;;;;;;140.27;58.25;;;11.70;99.90;;;;;;5032542;28;20029;-65
2023/10/19 05:03:42;;;;;;;88.25;39.40;;;11.70;99.90;;;;;;5031540;28;20030;-65
2023/10/19 05:06:09;;;;;;;96.90;45.10;;;11.70;99.90;;;;;;5028154;28;20052;-65
2023/10/19 05:08:36;;;;;;;60.63;26.17;;;11.80;99.90;;;;;;5027195;28;20391;-65
2023/10/19 05:11:03;;;;;;;48.35;24.98;;;11.80;99.90;;;;;;5033294;28;20034;-65
2023/10/19 05:13:30;;;;;;;26.00;14.32;;;11.80;99.90;;;;;;5031325;28;20033;-65
2023/10/19 05:15:56;;;;;;;17.23;9.73;;;11.80;99.90;;;;;;5032969;28;20032;-65
2023/10/19 05:18:22;;;;;;;16.42;9.48;;;11.80;99.90;;;;;;5032742;28;20025;-65
2023/10/19 05:20:49;;;;;;;15.23;8.45;;;11.80;99.90;;;;;;5030234;28;20140;-65
2023/10/19 05:23:14;;;;;;;11.05;6.43;;;11.90;99.90;;;;;;5030292;28;20032;-65
2023/10/19 05:25:40;;;;;;;10.52;7.18;;;11.90;99.90;;;;;;5031238;28;20021;-65
2023/10/19 05:28:06;;;;;;;10.48;6.22;;;11.90;99.90;;;;;;5036386;28;20033;-65
2023/10/19 05:30:36;;;;;;;13.38;6.45;;;11.90;99.90;;;;;;5030103;28;20026;-65
2023/10/19 05:33:01;;;;;;;13.27;6.88;;;11.90;99.90;;;;;;5034254;28;20021;-65
2023/10/19 05:35:29;;;;;;;15.38;6.57;;;11.90;99.90;;;;;;5026945;28;20025;-66
2023/10/19 05:37:56;;;;;;;14.68;6.80;;;11.90;99.90;;;;;;5029670;28;20018;-65
2023/10/19 05:40:23;;;;;;;13.15;7.00;;;11.90;99.90;;;;;;5030355;28;20021;-65
2023/10/19 05:42:49;;;;;;;12.40;6.25;;;12.00;99.90;;;;;;5031718;28;20022;-64
2023/10/19 05:45:18;;;;;;;14.15;6.53;;;12.00;99.90;;;;;;5031898;28;20123;-66
2023/10/19 05:47:46;;;;;;;8.80;5.65;;;12.00;99.90;;;;;;5031555;28;20025;-65
2023/10/19 05:50:14;;;;;;;12.75;6.63;;;12.00;99.90;;;;;;5030043;28;20030;-64
2023/10/19 05:52:43;;;;;;;11.23;6.00;;;12.00;99.90;;;;;;5029667;28;20483;-65
2023/10/19 05:55:13;;;;;;;12.55;6.32;;;12.00;99.90;;;;;;5029594;28;20037;-65
2023/10/19 05:57:42;;;;;;;11.02;7.00;;;12.00;99.90;;;;;;5028226;28;20025;-65
2023/10/19 06:00:13;;;;;;;18.05;6.32;;;12.00;99.90;;;;;;5027750;28;20022;-65
2023/10/19 06:02:46;;;;;;;21.83;12.15;;;12.00;99.90;;;;;;5029069;28;20044;-65
2023/10/19 06:05:16;;;;;;;30.27;18.40;;;12.00;99.90;;;;;;5031329;28;20018;-65
2023/10/19 06:07:43;;;;;;;33.58;21.33;;;12.00;99.90;;;;;;5025406;28;20033;-64
2023/10/19 06:10:15;;;;;;;27.83;15.65;;;12.00;99.90;;;;;;5022696;28;20033;-65
2023/10/19 06:12:44;;;;;;;20.17;12.60;;;12.00;99.90;;;;;;5028889;28;20105;-65
2023/10/19 06:15:12;;;;;;;15.88;10.02;;;12.10;99.90;;;;;;5030882;28;20040;-65
2023/10/19 06:17:39;;;;;;;16.30;9.05;;;12.10;99.90;;;;;;5029944;28;20026;-65
2023/10/19 06:20:19;;;;;;;15.27;9.43;;;12.10;99.90;;;;;;5029552;28;20095;-64
2023/10/19 06:22:49;;;;;;;19.88;11.00;;;12.10;99.90;;;;;;5029749;28;20033;-65
2023/10/19 06:25:19;;;;;;;17.52;10.65;;;12.10;99.90;;;;;;5025985;28;20026;-65
2023/10/19 06:27:45;;;;;;;16.45;8.82;;;12.20;99.90;;;;;;5027802;28;20064;-65
2023/10/19 06:30:11;;;;;;;24.15;9.07;;;12.20;99.90;;;;;;5027777;28;20064;-64
2023/10/19 06:32:37;;;;;;;15.93;8.10;;;12.30;99.90;;;;;;5030426;28;20080;-65
2023/10/19 06:35:03;;;;;;;18.13;8.85;;;12.30;99.90;;;;;;5027620;28;20041;-65
2023/10/19 06:37:29;;;;;;;15.57;8.88;;;12.40;99.90;;;;;;5023993;28;20036;-65
2023/10/19 06:39:54;;;;;;;18.33;8.75;;;12.40;99.90;;;;;;5028163;28;20026;-65
2023/10/19 06:42:20;;;;;;;16.65;8.90;;;12.50;99.90;;;;;;5032584;28;20034;-65
2023/10/19 06:44:46;;;;;;;13.85;9.15;;;12.50;99.90;;;;;;5029930;28;20093;-65
2023/10/19 06:47:13;;;;;;;16.33;9.75;;;12.60;99.90;;;;;;5028466;28;20121;-64
2023/10/19 06:49:39;;;;;;;22.02;10.70;;;12.70;99.90;;;;;;5029904;28;20041;-65
2023/10/19 06:52:05;;;;;;;19.85;10.35;;;12.70;99.90;;;;;;5027631;28;20058;-65
2023/10/19 06:54:31;;;;;;;19.67;13.38;;;12.70;99.90;;;;;;5027210;28;20091;-65
2023/10/19 06:56:57;;;;;;;20.65;12.65;;;12.70;99.90;;;;;;5025575;28;20490;-65
2023/10/19 06:59:24;;;;;;;19.05;13.43;;;12.70;99.90;;;;;;5028121;28;20022;-65
2023/10/19 07:01:50;;;;;;;21.60;11.40;;;12.80;99.90;;;;;;5030395;28;20022;-65
2023/10/19 07:04:15;;;;;;;17.02;11.05;;;12.80;99.90;;;;;;5024873;28;20118;-65
2023/10/19 07:06:41;;;;;;;14.93;9.15;;;12.90;99.90;;;;;;5025685;28;20120;-65
2023/10/19 07:09:09;;;;;;;18.98;8.90;;;12.90;99.90;;;;;;5030509;28;20044;-65
2023/10/19 07:11:35;;;;;;;15.77;8.73;;;13.00;99.90;;;;;;5030710;28;20037;-64
2023/10/19 07:14:01;;;;;;;14.80;7.22;;;13.00;99.90;;;;;;5030536;28;20390;-64
2023/10/19 07:16:26;;;;;;;19.85;11.70;;;13.00;99.90;;;;;;5028505;28;20029;-64
2023/10/19 07:18:53;;;;;;;43.42;26.48;;;13.10;99.90;;;;;;5033628;28;20021;-65
2023/10/19 07:21:18;;;;;;;46.38;29.20;;;13.10;99.90;;;;;;5032390;28;20033;-65
2023/10/19 07:23:45;;;;;;;50.47;30.33;;;13.20;99.90;;;;;;5028275;28;20481;-65
2023/10/19 07:26:14;;;;;;;43.67;27.77;;;13.20;99.90;;;;;;5036066;28;20052;-65
2023/10/19 07:28:39;;;;;;;34.78;23.00;;;13.30;99.90;;;;;;5036046;28;20101;-65
2023/10/19 07:31:12;;;;;;;30.00;18.75;;;13.30;99.90;;;;;;5036685;28;20145;-64
2023/10/19 07:33:42;;;;;;;23.20;11.95;;;13.40;99.90;;;;;;5035249;28;20060;-66
2023/10/19 07:36:14;;;;;;;12.75;7.75;;;13.50;99.90;;;;;;5033565;28;20040;-65
2023/10/19 07:38:39;;;;;;;16.08;8.85;;;13.60;99.90;;;;;;5033640;28;20018;-65
2023/10/19 07:41:05;;;;;;;15.95;8.70;;;13.60;99.90;;;;;;5034712;28;20022;-65
2023/10/19 07:43:31;;;;;;;11.93;8.23;;;13.70;99.90;;;;;;5035392;28;20391;-64
2023/10/19 07:45:57;;;;;;;15.90;8.38;;;13.70;99.90;;;;;;5036617;28;20045;-64
2023/10/19 07:48:22;;;;;;;10.55;7.63;;;13.80;99.90;;;;;;5034670;28;20033;-65
2023/10/19 07:50:48;;;;;;;11.48;6.47;;;13.90;99.90;;;;;;5035630;28;20023;-66
2023/10/19 07:53:13;;;;;;;10.57;6.18;;;13.90;99.90;;;;;;5023305;28;20487;-65
2023/10/19 07:55:39;;;;;;;11.60;5.97;;;14.00;99.90;;;;;;5023744;28;20120;-65
2023/10/19 07:58:08;;;;;;;6.30;4.78;;;14.10;99.90;;;;;;5034428;28;20033;-65
2023/10/19 08:00:34;;;;;;;13.52;5.97;;;14.10;99.90;;;;;;5037551;28;20026;-65
2023/10/19 08:03:00;;;;;;;10.55;4.53;;;14.20;99.90;;;;;;5034092;28;20030;-65
2023/10/19 08:05:26;;;;;;;10.95;5.70;;;14.30;99.90;;;;;;5032787;28;20032;-65
2023/10/19 08:07:52;;;;;;;9.32;5.45;;;14.40;99.90;;;;;;5033546;28;20061;-65
2023/10/19 08:10:19;;;;;;;10.85;5.22;;;14.60;99.90;;;;;;5033883;28;20030;-65
2023/10/19 08:12:49;;;;;;;7.20;4.35;;;14.60;99.90;;;;;;5035163;28;20029;-65
2023/10/19 08:15:17;;;;;;;6.72;4.80;;;14.70;99.90;;;;;;5036543;28;20104;-65
2023/10/19 08:17:45;;;;;;;6.45;3.88;;;14.80;99.90;;;;;;5033516;28;20021;-65
2023/10/19 08:20:24;;;;;;;5.70;3.65;;;15.00;99.90;;;;;;5035946;28;20029;-65
2023/10/19 08:22:51;;;;;;;9.52;3.70;;;15.10;99.90;;;;;;5036079;28;20024;-65
2023/10/19 08:25:17;;;;;;;7.35;3.25;;;15.20;99.90;;;;;;5033817;28;20087;-65
2023/10/19 08:27:49;;;;;;;6.50;3.28;;;15.30;99.90;;;;;;5034004;28;20462;-65
2023/10/19 08:30:20;;;;;;;5.05;3.22;;;15.40;99.90;;;;;;5031103;28;20398;-64
2023/10/19 08:32:49;;;;;;;5.88;2.83;;;15.50;99.90;;;;;;5025001;28;20491;-65
2023/10/19 08:35:25;;;;;;;6.95;3.10;;;15.60;99.90;;;;;;5031053;28;20037;-65
2023/10/19 08:37:56;;;;;;;3.47;2.28;;;15.80;99.90;;;;;;5032822;28;20033;-65
2023/10/19 08:40:23;;;;;;;6.97;2.78;;;15.90;99.90;;;;;;5030975;28;20026;-65
2023/10/19 08:42:50;;;;;;;7.78;2.40;;;16.20;99.90;;;;;;5029879;28;20031;-66
2023/10/19 08:45:16;;;;;;;9.63;2.63;;;16.40;99.90;;;;;;5033401;28;20022;-65
2023/10/19 08:48:02;;;;;;;7.80;2.30;;;16.50;99.90;;;;;;5031449;28;20061;-65
2023/10/19 08:50:31;;;;;;;5.22;2.15;;;16.50;99.90;;;;;;5029026;28;20523;-65
2023/10/19 08:53:01;;;;;;;6.07;2.10;;;16.60;99.90;;;;;;5031006;28;21663;-65
2023/10/19 08:55:27;;;;;;;3.72;2.13;;;16.90;99.90;;;;;;5032256;28;20045;-65
2023/10/19 08:57:53;;;;;;;8.15;1.95;;;17.00;99.90;;;;;;5033077;28;20064;-65
2023/10/19 09:00:19;;;;;;;3.85;1.52;;;17.20;99.90;;;;;;5032965;28;20018;-65
2023/10/19 09:02:45;;;;;;;4.00;1.85;;;17.10;99.90;;;;;;5031156;28;20033;-66
2023/10/19 09:05:19;;;;;;;5.38;2.75;;;17.20;99.90;;;;;;5018506;28;20610;-65
2023/10/19 09:07:54;;;;;;;3.60;1.50;;;17.50;99.90;;;;;;5038200;28;20029;-65
2023/10/19 09:10:27;;;;;;;4.70;1.65;;;18.10;99.90;;;;;;5030690;28;20037;-66
2023/10/19 09:13:04;;;;;;;2.97;1.45;;;18.70;99.90;;;;;;5030143;28;20022;-66
2023/10/19 09:15:32;;;;;;;5.15;1.50;;;18.90;99.90;;;;;;5030266;28;20033;-65
2023/10/19 09:18:11;;;;;;;5.63;1.45;;;19.10;99.90;;;;;;5038118;28;20103;-66
2023/10/19 09:20:37;;;;;;;4.55;1.30;;;19.30;99.90;;;;;;5023024;28;20017;-66
2023/10/19 09:23:03;;;;;;;11.35;1.52;;;19.70;99.90;;;;;;5031315;28;20017;-66
2023/10/19 09:25:29;;;;;;;5.18;1.23;;;20.00;99.90;;;;;;5036184;28;20068;-65
2023/10/19 09:27:54;;;;;;;6.70;1.70;;;19.80;99.90;;;;;;5031450;28;20074;-65
2023/10/19 09:30:22;;;;;;;5.95;1.65;;;19.70;99.90;;;;;;5024616;28;20029;-65
2023/10/19 09:32:48;;;;;;;4.75;1.83;;;19.20;99.90;;;;;;5023172;28;20030;-65
2023/10/19 09:35:15;;;;;;;4.75;1.33;;;18.80;99.90;;;;;;5029727;28;20545;-65
2023/10/19 09:37:44;;;;;;;6.72;1.20;;;18.40;99.90;;;;;;5025425;28;20036;-65
2023/10/19 09:40:14;;;;;;;3.47;0.90;;;18.60;99.90;;;;;;5025186;28;20026;-65
2023/10/19 09:42:49;;;;;;;4.95;1.48;;;18.80;99.90;;;;;;5032915;28;20022;-65
2023/10/19 09:45:19;;;;;;;4.50;1.20;;;19.20;99.90;;;;;;5033148;28;20021;-65
2023/10/19 09:47:52;;;;;;;6.55;1.00;;;19.60;99.90;;;;;;5029344;28;20028;-66
2023/10/19 09:50:17;;;;;;;3.60;1.17;;;19.80;99.90;;;;;;5028094;28;20148;-66
2023/10/19 09:52:44;;;;;;;10.98;2.22;;;20.00;99.90;;;;;;5030446;28;20065;-66
2023/10/19 09:55:23;;;;;;;7.10;1.80;;;19.80;99.90;;;;;;5031105;28;20032;-65
2023/10/19 09:57:53;;;;;;;7.43;1.40;;;19.60;99.90;;;;;;5031809;28;20026;-65
2023/10/19 10:00:25;;;;;;;5.93;1.55;;;19.50;99.90;;;;;;5031879;28;20108;-65
2023/10/19 10:02:55;;;;;;;8.68;1.60;;;19.60;99.90;;;;;;5027754;28;20054;-65
2023/10/19 10:05:42;;;;;;;7.07;1.73;;;19.60;99.90;;;;;;5019143;28;20038;-65
2023/10/19 10:08:32;;;;;;;7.30;1.52;;;19.60;99.90;;;;;;5030502;28;20030;-65
2023/10/19 10:10:58;;;;;;;3.97;1.73;;;19.50;99.90;;;;;;5029327;28;20041;-65
2023/10/19 10:13:27;;;;;;;13.38;2.90;;;19.40;99.90;;;;;;5029835;28;20030;-65
2023/10/19 10:15:57;;;;;;;7.75;3.13;;;19.30;99.90;;;;;;5030854;28;20026;-65
2023/10/19 10:18:26;;;;;;;9.60;2.58;;;19.20;99.90;;;;;;5028986;28;20028;-65
2023/10/19 10:21:10;;;;;;;7.55;2.38;;;19.30;99.90;;;;;;5027241;28;20423;-65
2023/10/19 10:23:48;;;;;;;6.30;1.77;;;19.30;99.90;;;;;;5030251;28;20104;-66
2023/10/19 10:26:15;;;;;;;5.30;1.60;;;19.50;99.90;;;;;;5023358;28;20025;-65
2023/10/19 10:28:45;;;;;;;13.80;2.75;;;19.70;99.90;;;;;;5022567;28;20081;-65
2023/10/19 10:31:21;;;;;;;4.35;1.90;;;19.80;99.90;;;;;;5030840;28;20094;-66
2023/10/19 10:33:51;;;;;;;8.18;1.77;;;20.00;99.90;;;;;;5028100;28;20030;-66
2023/10/19 10:36:19;;;;;;;9.18;1.58;;;20.10;99.90;;;;;;5030403;28;20409;-65
2023/10/19 10:38:46;;;;;;;11.50;3.75;;;20.30;99.90;;;;;;5029046;28;20108;-65
2023/10/19 10:41:12;;;;;;;14.27;4.53;;;20.30;99.90;;;;;;5028274;28;20025;-65
2023/10/19 10:43:55;;;;;;;7.47;1.73;;;20.40;99.90;;;;;;5031329;28;20104;-65
2023/10/19 10:46:22;;;;;;;9.95;1.75;;;20.30;99.90;;;;;;5024959;28;20113;-65
2023/10/19 10:48:48;;;;;;;3.58;1.08;;;20.30;99.90;;;;;;5030571;28;20026;-65
2023/10/19 10:51:25;;;;;;;7.95;1.98;;;20.20;99.90;;;;;;5029667;28;20025;-65
2023/10/19 10:53:53;;;;;;;4.47;1.50;;;20.20;99.90;;;;;;5028477;28;20025;-65
2023/10/19 10:56:23;;;;;;;10.80;2.03;;;20.00;99.90;;;;;;5026737;28;20021;-65
2023/10/19 10:58:52;;;;;;;12.35;5.32;;;19.70;99.90;;;;;;5025109;28;20433;-65
2023/10/19 11:01:32;;;;;;;20.40;7.68;;;19.50;99.90;;;;;;5023663;28;20581;-66
2023/10/19 11:04:11;;;;;;;27.13;9.40;;;19.30;99.90;;;;;;5012593;28;20132;-65
2023/10/19 11:06:55;;;;;;;21.98;9.48;;;19.20;99.90;;;;;;5029609;28;20056;-65
2023/10/19 11:09:24;;;;;;;10.75;3.97;;;19.10;99.90;;;;;;5026393;28;20053;-65
2023/10/19 11:11:52;;;;;;;9.63;2.80;;;19.00;99.90;;;;;;5027780;28;20025;-66
2023/10/19 11:14:18;;;;;;;7.55;2.35;;;18.80;99.90;;;;;;5026444;28;20029;-66
2023/10/19 11:16:43;;;;;;;6.80;2.05;;;18.70;99.90;;;;;;5030286;28;20079;-65
2023/10/19 11:19:09;;;;;;;5.78;1.33;;;18.80;99.90;;;;;;5025167;28;20109;-66
2023/10/19 11:21:36;;;;;;;4.60;1.77;;;18.80;99.90;;;;;;5024237;28;20017;-66
2023/10/19 11:24:01;;;;;;;12.05;2.67;;;18.80;99.90;;;;;;5024853;28;20075;-65
2023/10/19 11:26:27;;;;;;;5.60;1.73;;;18.70;99.90;;;;;;5029469;28;20029;-65
2023/10/19 11:29:00;;;;;;;9.80;1.55;;;18.90;99.90;;;;;;5029476;28;20034;-65
2023/10/19 11:31:27;;;;;;;3.75;1.33;;;18.90;99.90;;;;;;5027795;28;20116;-65
2023/10/19 11:33:55;;;;;;;6.18;1.27;;;18.80;99.90;;;;;;5028234;28;20037;-65
2023/10/19 11:36:22;;;;;;;14.95;1.23;;;18.70;99.90;;;;;;5028985;28;20560;-65
2023/10/19 11:38:51;;;;;;;7.13;1.20;;;18.60;99.90;;;;;;5025631;28;20028;-65
2023/10/19 11:41:17;;;;;;;9.57;1.73;;;18.50;99.90;;;;;;5025982;28;20487;-66
2023/10/19 11:43:44;;;;;;;8.00;1.30;;;18.50;99.90;;;;;;5025739;28;20058;-65
2023/10/19 11:46:24;;;;;;;7.43;1.40;;;18.60;99.90;;;;;;5027006;28;20065;-66
2023/10/19 11:48:50;;;;;;;6.30;1.40;;;18.70;99.90;;;;;;5027659;28;20715;-65
2023/10/19 11:51:16;;;;;;;5.55;1.23;;;18.70;99.90;;;;;;5026111;28;20041;-65
2023/10/19 11:53:42;;;;;;;5.65;1.33;;;18.60;99.90;;;;;;5021557;28;20029;-67
2023/10/19 11:56:11;;;;;;;4.82;1.27;;;18.60;99.90;;;;;;5025068;28;20025;-65
2023/10/19 11:58:39;;;;;;;9.20;1.88;;;18.70;99.90;;;;;;5036079;28;20028;-66
2023/10/19 12:01:08;;;;;;;3.45;1.48;;;18.60;99.90;;;;;;5025166;28;20383;-66
2023/10/19 12:03:37;;;;;;;12.82;1.67;;;18.60;99.90;;;;;;5027209;28;20498;-65
2023/10/19 12:06:06;;;;;;;7.80;1.40;;;18.50;99.90;;;;;;5016592;28;20136;-65
2023/10/19 12:08:32;;;;;;;12.27;1.75;;;18.50;99.90;;;;;;5029360;28;20052;-65
2023/10/19 12:10:59;;;;;;;9.30;1.70;;;18.40;99.90;;;;;;5028954;28;20112;-65
2023/10/19 12:13:25;;;;;;;8.30;1.55;;;18.30;99.90;;;;;;5031259;28;20437;-65
2023/10/19 12:15:54;;;;;;;10.82;2.75;;;18.10;99.90;;;;;;5033559;28;20094;-66
2023/10/19 12:18:21;;;;;;;11.25;2.20;;;17.90;99.90;;;;;;5030247;28;20161;-65
2023/10/19 12:20:47;;;;;;;7.85;1.45;;;17.70;99.90;;;;;;5035411;28;20060;-65
2023/10/19 12:23:14;;;;;;;6.97;1.40;;;17.60;99.90;;;;;;5031430;28;20024;-66
2023/10/19 12:25:42;;;;;;;7.70;1.90;;;17.60;99.90;;;;;;5024284;28;20095;-65
2023/10/19 12:28:08;;;;;;;5.07;1.73;;;17.50;99.90;;;;;;5032385;28;20108;-65
2023/10/19 12:30:36;;;;;;;5.63;2.00;;;17.40;99.90;;;;;;5029641;28;20113;-65
2023/10/19 12:33:11;;;;;;;7.88;1.70;;;17.40;99.90;;;;;;5030945;28;20028;-66
2023/10/19 12:35:51;;;;;;;5.57;1.67;;;17.40;99.90;;;;;;5032883;28;20017;-66
2023/10/19 12:38:19;;;;;;;6.63;1.88;;;17.40;99.90;;;;;;5026937;28;20022;-65
2023/10/19 12:40:47;;;;;;;6.78;2.90;;;17.40;99.90;;;;;;5034466;28;20029;-65
2023/10/19 12:43:14;;;;;;;7.75;1.77;;;17.40;99.90;;;;;;5030303;28;20053;-65
2023/10/19 12:45:40;;;;;;;9.88;1.95;;;17.40;99.90;;;;;;5028434;28;20115;-66
2023/10/19 12:48:06;;;;;;;13.18;1.98;;;17.40;99.90;;;;;;5032607;28;20480;-65
2023/10/19 12:50:34;;;;;;;7.30;2.97;;;17.40;99.90;;;;;;5033322;28;20039;-66
2023/10/19 12:53:00;;;;;;;6.47;2.10;;;17.40;99.90;;;;;;5030280;28;20041;-65
2023/10/19 12:55:30;;;;;;;5.25;1.60;;;17.40;99.90;;;;;;5032501;28;20030;-66